createdAt,value
2022-08-28T00:00:40.636Z,17.00
2022-08-28T00:03:08.473Z,17.03
2022-08-28T00:05:36.470Z,17.00
2022-08-28T00:08:04.454Z,17.01
2022-08-28T00:10:32.657Z,17.02
2022-08-28T00:13:00.421Z,17.04
2022-08-28T00:15:29.866Z,16.96
2022-08-28T00:17:57.626Z,16.91
2022-08-28T00:20:25.332Z,16.84
2022-08-28T00:22:53.056Z,16.79
2022-08-28T00:25:24.502Z,16.82
2022-08-28T00:27:57.709Z,16.71
2022-08-28T00:32:23.828Z,16.75
2022-08-28T00:34:51.435Z,16.75
2022-08-28T00:37:25.607Z,16.69
2022-08-28T00:39:54.178Z,16.62
2022-08-28T00:42:21.919Z,16.58
2022-08-28T00:44:48.948Z,16.58
2022-08-28T00:47:15.875Z,16.63
2022-08-28T00:49:52.816Z,16.51
2022-08-28T00:52:22.328Z,16.48
2022-08-28T00:54:59.307Z,16.46
2022-08-28T00:57:30.049Z,16.42
2022-08-28T00:59:59.950Z,16.38
2022-08-28T01:02:27.853Z,16.48
2022-08-28T01:04:56.131Z,16.54
2022-08-28T01:07:28.521Z,16.54
2022-08-28T01:09:58.091Z,16.56
2022-08-28T01:12:33.134Z,16.58
2022-08-28T01:15:16.419Z,16.59
2022-08-28T01:17:50.086Z,16.56
2022-08-28T01:20:22.279Z,16.57
2022-08-28T01:23:12.283Z,16.61
2022-08-28T01:25:40.748Z,16.61
2022-08-28T01:28:13.027Z,16.59
2022-08-28T01:30:47.925Z,16.61
2022-08-28T01:33:16.601Z,16.56
2022-08-28T01:35:48.914Z,16.56
2022-08-28T01:38:21.906Z,16.58
2022-08-28T01:40:58.643Z,16.56
2022-08-28T01:43:29.058Z,16.55
2022-08-28T01:46:04.914Z,16.53
2022-08-28T01:48:37.964Z,16.53
2022-08-28T01:51:06.400Z,16.49
2022-08-28T01:53:35.328Z,16.52
2022-08-28T01:56:12.227Z,16.47
2022-08-28T01:58:41.255Z,16.41
2022-08-28T02:01:16.440Z,16.44
2022-08-28T02:03:45.951Z,16.44
2022-08-28T02:06:14.226Z,16.38
2022-08-28T02:09:07.366Z,16.36
2022-08-28T02:12:16.077Z,16.34
2022-08-28T02:14:46.371Z,16.29
2022-08-28T02:25:25.363Z,16.27
2022-08-28T02:46:55.355Z,16.13
2022-08-28T02:49:39.235Z,16.12
2022-08-28T02:52:07.106Z,16.10
2022-08-28T03:34:31.033Z,15.89
2022-08-28T03:36:58.819Z,15.91
2022-08-28T03:39:26.129Z,15.91
2022-08-28T03:41:53.197Z,15.91
2022-08-28T03:44:20.329Z,15.94
2022-08-28T03:46:47.831Z,15.89
2022-08-28T03:49:15.390Z,15.87
2022-08-28T03:51:44.156Z,15.89
2022-08-28T03:54:25.690Z,15.90
2022-08-28T03:56:53.559Z,15.86
2022-08-28T03:59:26.633Z,15.92
2022-08-28T04:01:59.807Z,15.92
2022-08-28T04:04:26.905Z,15.94
2022-08-28T04:06:56.169Z,15.97
2022-08-28T04:09:23.453Z,15.91
2022-08-28T04:23:12.563Z,16.04
2022-08-28T04:25:40.646Z,16.12
2022-08-28T04:28:13.969Z,16.19
2022-08-28T04:30:42.503Z,16.24
2022-08-28T04:33:11.191Z,16.28
2022-08-28T04:35:50.654Z,16.34
2022-08-28T04:38:18.493Z,16.39
2022-08-28T04:40:45.399Z,16.40
2022-08-28T04:45:57.362Z,16.45
2022-08-28T04:48:25.298Z,16.54
2022-08-28T04:50:52.521Z,16.67
2022-08-28T04:53:23.984Z,16.70
2022-08-28T04:55:59.195Z,16.78
2022-08-28T04:58:31.174Z,16.90
2022-08-28T05:00:58.697Z,16.93
2022-08-28T05:03:29.052Z,17.03
2022-08-28T05:05:56.535Z,17.09
2022-08-28T05:08:27.897Z,17.24
2022-08-28T05:10:56.333Z,17.49
2022-08-28T05:13:23.654Z,17.65
2022-08-28T05:15:52.816Z,17.94
2022-08-28T05:18:23.218Z,18.24
2022-08-28T05:20:50.195Z,18.50
2022-08-28T05:23:18.089Z,18.82
2022-08-28T05:25:49.524Z,19.12
2022-08-28T05:28:17.532Z,19.44
2022-08-28T05:30:52.389Z,19.74
2022-08-28T05:33:21.063Z,20.06
2022-08-28T05:35:48.536Z,20.31
2022-08-28T05:38:17.573Z,20.63
2022-08-28T05:40:49.769Z,20.96
2022-08-28T05:43:18.817Z,21.25
2022-08-28T05:45:46.354Z,21.51
2022-08-28T05:48:16.824Z,21.74
2022-08-28T05:50:47.391Z,21.85
2022-08-28T05:53:14.844Z,21.91
2022-08-28T05:55:42.322Z,22.09
2022-08-28T05:58:34.994Z,22.35
2022-08-28T06:01:34.286Z,22.71
2022-08-28T06:04:10.444Z,23.06
2022-08-28T06:06:39.846Z,23.23
2022-08-28T06:09:29.428Z,23.51
2022-08-28T06:11:59.688Z,23.65
2022-08-28T06:14:35.076Z,23.85
2022-08-28T06:17:02.812Z,24.15
2022-08-28T06:19:31.670Z,24.49
2022-08-28T06:22:07.535Z,24.87
2022-08-28T06:24:38.642Z,25.17
2022-08-28T06:27:06.015Z,25.43
2022-08-28T06:29:33.376Z,25.68
2022-08-28T06:32:05.148Z,25.96
2022-08-28T06:34:32.401Z,26.17
2022-08-28T06:37:10.089Z,26.39
2022-08-28T06:39:37.592Z,26.57
2022-08-28T06:42:06.424Z,26.81
2022-08-28T06:44:33.849Z,27.03
2022-08-28T06:47:00.703Z,27.32
2022-08-28T06:49:28.065Z,27.65
2022-08-28T06:51:56.433Z,27.86
2022-08-28T06:54:31.189Z,28.04
2022-08-28T06:56:58.513Z,28.17
2022-08-28T07:02:30.605Z,28.63
2022-08-28T07:04:57.712Z,28.86
2022-08-28T07:07:31.480Z,29.07
2022-08-28T07:09:59.102Z,29.30
2022-08-28T07:12:26.240Z,29.41
2022-08-28T07:14:53.306Z,29.60
2022-08-28T07:17:20.421Z,29.82
2022-08-28T07:19:47.759Z,30.13
2022-08-28T07:22:14.835Z,30.34
2022-08-28T07:24:42.054Z,30.54
2022-08-28T07:27:09.753Z,30.78
2022-08-28T07:29:36.936Z,30.95
2022-08-28T07:32:04.528Z,31.11
2022-08-28T07:34:42.107Z,31.34
2022-08-28T07:37:12.186Z,31.76
2022-08-28T07:39:45.768Z,32.05
2022-08-28T07:42:35.567Z,32.16
2022-08-28T07:45:03.857Z,32.33
2022-08-28T07:47:32.001Z,32.62
2022-08-28T07:50:02.434Z,32.88
2022-08-28T07:52:29.807Z,33.04
2022-08-28T07:54:57.706Z,33.22
2022-08-28T07:57:25.169Z,33.28
2022-08-28T07:59:52.859Z,33.60
2022-08-28T08:02:20.047Z,33.70
2022-08-28T08:04:50.060Z,33.74
2022-08-28T08:07:21.371Z,33.59
2022-08-28T08:09:49.123Z,33.78
2022-08-28T08:12:17.484Z,33.80
2022-08-28T08:14:44.508Z,33.92
2022-08-28T08:17:11.511Z,33.93
2022-08-28T08:19:43.273Z,33.91
2022-08-28T08:22:10.304Z,34.13
2022-08-28T08:24:37.199Z,34.20
2022-08-28T08:27:04.647Z,34.22
2022-08-28T08:29:36.222Z,34.33
2022-08-28T08:32:07.223Z,34.48
2022-08-28T08:34:40.251Z,34.61
2022-08-28T08:37:08.881Z,34.72
2022-08-28T08:39:37.225Z,34.86
2022-08-28T08:42:07.981Z,34.96
2022-08-28T08:44:42.605Z,34.99
2022-08-28T08:47:16.215Z,34.98
2022-08-28T08:50:09.048Z,34.50
2022-08-28T08:52:45.161Z,34.51
2022-08-28T08:55:23.684Z,34.62
2022-08-28T08:58:05.625Z,34.67
2022-08-28T09:00:38.608Z,34.68
2022-08-28T09:03:22.475Z,34.73
2022-08-28T09:06:03.928Z,34.83
2022-08-28T09:08:37.044Z,34.55
2022-08-28T09:11:34.035Z,34.59
2022-08-28T09:14:16.265Z,34.59
2022-08-28T09:16:48.030Z,34.74
2022-08-28T09:19:21.137Z,34.95
2022-08-28T09:21:50.369Z,34.90
2022-08-28T09:24:24.465Z,34.78
2022-08-28T09:27:03.889Z,34.89
2022-08-28T09:29:40.467Z,34.90
2022-08-28T09:32:38.248Z,34.76
2022-08-28T09:35:24.156Z,35.28
2022-08-28T09:37:52.263Z,35.70
2022-08-28T09:40:53.249Z,35.90
2022-08-28T09:43:30.225Z,35.66
2022-08-28T09:46:03.182Z,35.61
2022-08-28T09:48:43.791Z,35.61
2022-08-28T09:51:14.775Z,35.55
2022-08-28T09:54:24.060Z,35.61
2022-08-28T09:56:52.018Z,35.45
2022-08-28T09:59:23.130Z,35.43
2022-08-28T10:01:58.960Z,35.59
2022-08-28T10:04:44.459Z,35.70
2022-08-28T10:07:39.158Z,35.70
2022-08-28T10:10:27.749Z,35.16
2022-08-28T10:13:28.937Z,34.58
2022-08-28T10:16:23.822Z,34.43
2022-08-28T10:18:59.311Z,34.56
2022-08-28T10:21:32.271Z,34.54
2022-08-28T10:24:15.384Z,34.57
2022-08-28T10:27:09.829Z,34.75
2022-08-28T10:30:12.899Z,34.99
2022-08-28T10:33:23.577Z,35.11
2022-08-28T10:36:04.298Z,35.10
2022-08-28T10:38:40.534Z,35.23
2022-08-28T10:41:15.182Z,35.24
2022-08-28T10:43:48.007Z,35.33
2022-08-28T10:46:27.024Z,35.30
2022-08-28T10:49:03.450Z,35.57
2022-08-28T10:51:46.356Z,35.86
2022-08-28T10:54:31.026Z,35.73
2022-08-28T10:57:23.053Z,35.40
2022-08-28T10:59:54.288Z,35.03
2022-08-28T11:02:26.114Z,34.66
2022-08-28T11:04:58.652Z,34.34
2022-08-28T11:07:37.531Z,34.26
2022-08-28T11:10:35.409Z,34.08
2022-08-28T11:13:05.001Z,33.78
2022-08-28T11:15:37.230Z,33.59
2022-08-28T11:18:17.103Z,33.39
2022-08-28T11:21:03.017Z,33.01
2022-08-28T11:24:01.990Z,33.08
2022-08-28T11:27:19.387Z,33.14
2022-08-28T11:30:02.205Z,33.24
2022-08-28T11:32:36.038Z,33.57
2022-08-28T11:35:21.987Z,33.92
2022-08-28T11:37:54.323Z,34.17
2022-08-28T11:40:34.719Z,34.44
2022-08-28T11:43:49.949Z,34.70
2022-08-28T11:46:19.956Z,34.90
2022-08-28T11:48:54.175Z,34.77
2022-08-28T11:52:06.305Z,34.58
2022-08-28T11:55:07.008Z,34.50
2022-08-28T12:00:37.289Z,34.48
2022-08-28T12:03:12.554Z,34.71
2022-08-28T12:05:45.430Z,34.92
2022-08-28T12:08:14.030Z,35.11
2022-08-28T12:10:59.957Z,35.14
2022-08-28T12:13:56.307Z,35.10
2022-08-28T12:16:23.343Z,35.08
2022-08-28T12:18:50.436Z,35.09
2022-08-28T12:21:27.021Z,35.16
2022-08-28T12:24:16.428Z,35.29
2022-08-28T12:26:53.571Z,35.47
2022-08-28T12:29:35.601Z,35.55
2022-08-28T12:32:27.078Z,35.47
2022-08-28T12:35:01.188Z,35.42
2022-08-28T12:38:00.098Z,35.33
2022-08-28T12:40:59.557Z,35.26
2022-08-28T12:43:44.296Z,35.27
2022-08-28T12:46:21.100Z,34.96
2022-08-28T12:48:58.891Z,34.79
2022-08-28T12:51:31.359Z,34.67
2022-08-28T12:54:14.092Z,34.60
2022-08-28T12:56:41.435Z,34.55
2022-08-28T12:59:37.010Z,34.46
2022-08-28T13:02:19.838Z,34.41
2022-08-28T13:05:09.950Z,34.35
2022-08-28T13:07:49.473Z,34.38
2022-08-28T13:10:30.234Z,34.44
2022-08-28T13:13:06.506Z,34.32
2022-08-28T13:15:46.129Z,34.35
2022-08-28T13:18:46.320Z,34.29
2022-08-28T13:21:31.723Z,34.36
2022-08-28T13:24:22.239Z,34.48
2022-08-28T13:27:12.732Z,34.39
2022-08-28T13:30:01.734Z,34.21
2022-08-28T13:32:32.780Z,34.11
2022-08-28T13:35:17.178Z,34.14
2022-08-28T13:37:49.236Z,34.22
2022-08-28T13:40:55.728Z,34.25
2022-08-28T13:43:19.506Z,34.11
2022-08-28T13:45:51.323Z,33.99
2022-08-28T13:48:23.327Z,33.59
2022-08-28T13:51:14.288Z,33.42
2022-08-28T13:53:48.478Z,33.24
2022-08-28T13:56:18.230Z,32.99
2022-08-28T13:58:50.010Z,32.78
2022-08-28T14:01:45.686Z,32.62
2022-08-28T14:04:19.380Z,32.49
2022-08-28T14:06:46.776Z,32.27
2022-08-28T14:09:17.766Z,32.13
2022-08-28T14:11:46.819Z,31.86
2022-08-28T14:14:14.518Z,31.68
2022-08-28T14:16:52.175Z,31.49
2022-08-28T14:19:22.292Z,31.30
2022-08-28T14:21:49.463Z,31.10
2022-08-28T14:24:17.187Z,30.88
2022-08-28T14:26:46.130Z,30.70
2022-08-28T14:29:15.636Z,30.55
2022-08-28T14:31:45.144Z,30.39
2022-08-28T14:34:19.168Z,30.23
2022-08-28T14:36:55.395Z,30.07
2022-08-28T14:39:25.906Z,29.84
2022-08-28T14:41:53.777Z,29.65
2022-08-28T14:44:23.445Z,29.48
2022-08-28T14:46:56.951Z,29.31
2022-08-28T14:49:25.953Z,29.13
2022-08-28T14:51:54.555Z,29.03
2022-08-28T14:54:24.532Z,28.93
2022-08-28T14:56:52.973Z,28.89
2022-08-28T14:59:24.794Z,28.81
2022-08-28T15:01:53.268Z,28.69
2022-08-28T15:04:23.217Z,28.59
2022-08-28T15:06:58.481Z,28.57
2022-08-28T15:09:26.435Z,28.65
2022-08-28T15:11:53.855Z,28.79
2022-08-28T15:14:24.420Z,28.95
2022-08-28T15:16:51.706Z,29.15
2022-08-28T15:19:18.850Z,29.28
2022-08-28T15:21:57.083Z,29.38
2022-08-28T15:28:58.821Z,29.54
2022-08-28T15:31:07.372Z,29.37
2022-08-28T15:37:34.467Z,28.81
2022-08-28T15:40:44.596Z,28.68
2022-08-28T15:53:18.403Z,27.98
2022-08-28T15:56:45.453Z,27.80
2022-08-28T15:59:49.499Z,27.55
2022-08-28T16:02:32.847Z,27.31
2022-08-28T16:05:49.251Z,27.14
2022-08-28T16:11:55.396Z,26.79
2022-08-28T16:14:57.793Z,26.67
2022-08-28T16:20:31.651Z,26.38
2022-08-28T16:26:13.493Z,26.03
2022-08-28T16:29:27.924Z,25.87
2022-08-28T16:32:12.562Z,25.72
2022-08-28T16:41:45.814Z,25.28
2022-08-28T16:45:04.161Z,25.15
2022-08-28T16:47:52.798Z,25.07
2022-08-28T16:50:34.693Z,25.00
2022-08-28T16:56:35.219Z,24.54
2022-08-28T16:59:20.390Z,24.38
2022-08-28T17:02:30.835Z,24.29
2022-08-28T17:05:13.994Z,24.17
2022-08-28T17:08:00.572Z,24.03
2022-08-28T17:10:59.666Z,23.98
2022-08-28T17:13:30.865Z,23.91
2022-08-28T17:19:00.212Z,23.70
2022-08-28T17:21:50.825Z,23.59
2022-08-28T17:24:18.125Z,23.49
2022-08-28T17:26:45.127Z,23.46
2022-08-28T17:29:47.379Z,23.32
2022-08-28T17:32:15.563Z,23.21
2022-08-28T17:35:16.747Z,23.08
2022-08-28T17:38:20.134Z,22.91
2022-08-28T17:41:24.184Z,22.85
2022-08-28T17:44:28.252Z,22.70
2022-08-28T17:46:56.420Z,22.57
2022-08-28T17:49:27.473Z,22.62
2022-08-28T17:52:13.222Z,22.54
2022-08-28T17:54:52.091Z,22.50
2022-08-28T17:57:30.905Z,22.38
2022-08-28T18:00:08.260Z,22.31
2022-08-28T18:02:58.847Z,22.19
2022-08-28T18:05:38.449Z,22.05
2022-08-28T18:08:45.099Z,21.98
2022-08-28T18:11:45.146Z,21.90
2022-08-28T18:14:30.986Z,21.78
2022-08-28T18:17:04.113Z,21.72
2022-08-28T18:19:37.373Z,21.71
2022-08-28T18:22:14.719Z,21.67
2022-08-28T18:28:22.745Z,21.42
2022-08-28T18:31:15.460Z,21.24
2022-08-28T18:34:40.410Z,21.15
2022-08-28T18:37:11.564Z,21.08
2022-08-28T18:39:40.954Z,21.04
2022-08-28T18:42:22.177Z,21.02
2022-08-28T18:45:01.075Z,21.01
2022-08-28T18:48:16.713Z,20.98
2022-08-28T18:54:50.374Z,21.00
2022-08-28T18:57:46.571Z,20.94
2022-08-28T19:00:30.596Z,20.88
2022-08-28T19:03:44.134Z,20.68
2022-08-28T19:10:32.922Z,20.65
2022-08-28T19:13:21.883Z,20.58
2022-08-28T19:16:01.919Z,20.56
2022-08-28T19:18:53.086Z,20.51
2022-08-28T19:21:35.980Z,20.51
2022-08-28T19:24:19.850Z,20.40
2022-08-28T19:27:01.854Z,20.30
2022-08-28T19:29:54.292Z,20.24
2022-08-28T19:32:34.429Z,20.12
2022-08-28T19:35:05.461Z,20.06
2022-08-28T19:37:39.736Z,20.13
2022-08-28T19:40:15.147Z,20.11
2022-08-28T19:42:52.175Z,20.08
2022-08-28T19:45:37.638Z,19.99
2022-08-28T19:52:08.109Z,19.91
2022-08-28T19:54:44.018Z,19.91
2022-08-28T19:57:37.266Z,19.74
2022-08-28T20:00:21.521Z,19.72
2022-08-28T20:03:03.942Z,19.71
2022-08-28T20:06:11.528Z,19.67
2022-08-28T20:15:18.447Z,19.52
2022-08-28T20:17:49.859Z,19.45
2022-08-28T20:20:29.339Z,19.42
2022-08-28T20:23:10.518Z,19.36
2022-08-28T20:31:53.961Z,19.23
2022-08-28T20:34:34.729Z,19.20
2022-08-28T20:37:07.061Z,19.17
2022-08-28T20:42:47.359Z,19.14
2022-08-28T20:45:22.794Z,19.11
2022-08-28T20:47:55.030Z,19.09
2022-08-28T20:50:36.064Z,19.11
2022-08-28T20:53:14.477Z,19.01
2022-08-28T20:56:08.400Z,18.97
2022-08-28T20:58:46.431Z,18.96
2022-08-28T21:01:37.736Z,18.84
2022-08-28T21:04:32.682Z,18.84
2022-08-28T21:07:12.914Z,18.83
2022-08-28T21:10:05.679Z,18.81
2022-08-28T21:12:49.548Z,18.77
2022-08-28T21:15:22.404Z,18.70
2022-08-28T21:17:50.270Z,18.71
2022-08-28T21:20:17.775Z,18.59
2022-08-28T21:22:46.158Z,18.54
2022-08-28T21:25:18.274Z,18.53
2022-08-28T21:28:04.215Z,18.50
2022-08-28T21:30:35.496Z,18.46
2022-08-28T21:33:03.247Z,18.46
2022-08-28T21:35:30.694Z,18.40
2022-08-28T21:38:01.515Z,18.34
2022-08-28T21:40:32.240Z,18.40
2022-08-28T21:43:05.020Z,18.41
2022-08-28T21:45:33.729Z,18.38
2022-08-28T21:48:01.418Z,18.30
2022-08-28T21:50:38.162Z,18.30
2022-08-28T21:53:36.250Z,18.27
2022-08-28T21:56:05.538Z,18.28
2022-08-28T21:58:55.103Z,18.26
2022-08-28T22:01:29.352Z,18.27
2022-08-28T22:03:59.927Z,18.15
2022-08-28T22:06:30.834Z,18.11
2022-08-28T22:08:59.167Z,18.07
2022-08-28T22:11:35.458Z,18.03
2022-08-28T22:14:03.153Z,18.07
2022-08-28T22:16:30.717Z,18.09
2022-08-28T22:18:59.046Z,18.03
2022-08-28T22:22:05.985Z,17.94
2022-08-28T22:24:39.410Z,17.91
2022-08-28T22:27:07.193Z,17.94
2022-08-28T22:30:00.691Z,17.95
2022-08-28T22:32:28.680Z,17.92
2022-08-28T22:34:58.743Z,17.90
2022-08-28T22:37:29.281Z,17.86
2022-08-28T22:39:58.257Z,17.82
2022-08-28T22:42:26.982Z,17.78
2022-08-28T22:44:55.294Z,17.76
2022-08-28T22:47:25.831Z,17.76
2022-08-28T22:49:56.408Z,17.75
2022-08-28T22:52:23.939Z,17.68
2022-08-28T22:54:54.975Z,17.66
2022-08-28T22:57:29.304Z,17.60
2022-08-28T23:00:01.804Z,17.60
2022-08-28T23:02:32.965Z,17.58
2022-08-28T23:05:03.037Z,17.60
2022-08-28T23:07:33.351Z,17.53
2022-08-28T23:10:06.626Z,17.51
2022-08-28T23:12:35.050Z,17.51
2022-08-28T23:15:19.269Z,17.45
2022-08-28T23:17:52.247Z,17.43
2022-08-28T23:20:22.603Z,17.45
2022-08-28T23:22:50.465Z,17.39
2022-08-28T23:25:24.998Z,17.38
2022-08-28T23:27:54.978Z,17.30
2022-08-28T23:30:23.570Z,17.29
2022-08-28T23:32:51.961Z,17.29
2022-08-28T23:35:20.380Z,17.31
2022-08-28T23:37:51.906Z,17.37
2022-08-28T23:40:22.072Z,17.33
2022-08-28T23:42:50.267Z,17.30
2022-08-28T23:45:27.695Z,17.31
2022-08-28T23:47:55.764Z,17.27
2022-08-28T23:50:27.811Z,17.25
2022-08-28T23:52:58.666Z,17.20
2022-08-28T23:55:27.099Z,17.18
2022-08-28T23:57:55.738Z,17.09
